tititudorancea.com
Station Historical Data
Daily Summary for February 15, 2018 Units:  Metric    English   Both
« Previous Day
Next Day »
Daily Weekly Monthly Yearly Custom
  High: Low: Average:
Temperature: -17.8 °C 10.5 °C 16.3 °C
Dew Point: -17.8 °C 4.2 °C 8.1 °C
Humidity: Humidity % 41 % 59 %
Wind Speed: 0 km/h 0 km/h 7.1 km/h
Wind Gust: 0 km/h - -
Wind:- - West
Pressure: 0 hPa 1010.7 hPa -
Precipitation: 0 mm    
Historical Graphs
 
 
Ararat weather Find more about Weather in Ararat, AU


 



 


Tabular Data for February 15, 2018
Time Temperature Dew Point Pressure Wind Wind Speed Wind Gust Humidity Rainfall Rate (Hourly)
-17.8 °C -17.8 °C 0 hPa Calm     Humidity % 0 mm
00:01 13.4 °C 5.3 °C 1013.4 hPa SSW 1.1 km/h 3.7 km/h 58 % 0 mm
00:06 13.1 °C 4.7 °C 1013.4 hPa SSW 2.9 km/h 5.6 km/h 57 % 0 mm
00:11 12.4 °C 4.6 °C 1013.4 hPa SSW 0.5 km/h 3.7 km/h 59 % 0 mm
00:16 11.9 °C 4.4 °C 1013.8 hPa Calm     60 % 0 mm
00:21 11.6 °C 4.3 °C 1013.8 hPa Calm     61 % 0 mm
00:26 11.2 °C 4.2 °C 1013.8 hPa Calm     62 % 0 mm
00:31 10.9 °C 4.4 °C 1013.8 hPa Calm     64 % 0 mm
00:36 10.7 °C 4.4 °C 1013.8 hPa Calm     65 % 0 mm
00:41 10.5 °C 4.6 °C 1013.8 hPa Calm     67 % 0 mm
00:46 10.8 °C 5.1 °C 1013.8 hPa SSW 5.5 km/h 9.3 km/h 68 % 0 mm
00:51 11.6 °C 5.6 °C 1013.8 hPa SW 5 km/h 11.3 km/h 67 % 0 mm
00:56 12.3 °C 5.9 °C 1013.8 hPa SW 9 km/h 13 km/h 65 % 0 mm
01:01 12.7 °C 5.8 °C 1013.8 hPa SW 7.4 km/h 13 km/h 63 % 0 mm
01:06 12.9 °C 5.8 °C 1013.8 hPa SW 8 km/h 11.1 km/h 62 % 0 mm
01:11 12.9 °C 5.8 °C 1013.8 hPa SW 6.8 km/h 16.7 km/h 62 % 0 mm
01:16 12.9 °C 5.8 °C 1013.8 hPa SW 8.9 km/h 13 km/h 62 % 0 mm
01:21 12.9 °C 5.8 °C 1013.8 hPa SW 4.7 km/h 5.6 km/h 62 % 0 mm
01:26 12.9 °C 5.8 °C 1013.8 hPa SW 6.3 km/h 13 km/h 62 % 0 mm
01:31 12.8 °C 5.7 °C 1013.8 hPa SW 7.6 km/h 9.3 km/h 62 % 0 mm
01:36 12.8 °C 5.7 °C 1013.8 hPa SW 9.2 km/h 13 km/h 62 % 0 mm
01:41 12.9 °C 5.8 °C 1013.8 hPa SW 9.7 km/h 16.7 km/h 62 % 0 mm
01:46 13.1 °C 5.9 °C 1013.8 hPa WSW 11.4 km/h 14.8 km/h 62 % 0 mm
01:51 13.1 °C 6.2 °C 1013.8 hPa WSW 9.3 km/h 13 km/h 63 % 0 mm
01:56 13.1 °C 6.2 °C 1013.8 hPa WSW 11.7 km/h 16.7 km/h 63 % 0 mm
02:01 13 °C 6.1 °C 1013.8 hPa WSW 10 km/h 14.8 km/h 63 % 0 mm
02:06 12.9 °C 6.3 °C 1013.8 hPa North 10.3 km/h 24.1 km/h 64 % 0 mm
02:11 12.9 °C 6.2 °C 1013.8 hPa WSW 9.3 km/h 14.8 km/h 64 % 0 mm
02:16 12.9 °C 6.5 °C 1013.4 hPa North 8.2 km/h 14.5 km/h 65 % 0 mm
02:21 12.9 °C 6.4 °C 1013.4 hPa North 8.7 km/h 13 km/h 65 % 0 mm
02:26 12.9 °C 6.7 °C 1013.4 hPa WSW 6.6 km/h 13 km/h 66 % 0 mm
02:31 12.8 °C 6.6 °C 1013.4 hPa North 7.1 km/h 11.1 km/h 66 % 0 mm
02:36 12.8 °C 6.8 °C 1013.4 hPa WSW 7.6 km/h 11.1 km/h 67 % 0 mm
02:41 12.8 °C 6.8 °C 1013.1 hPa WSW 4.5 km/h 8 km/h 67 % 0 mm
02:46 12.8 °C 6.6 °C 1013.1 hPa SW 5.8 km/h 8 km/h 66 % 0 mm
02:51 12.8 °C 6.8 °C 1013.1 hPa WSW 5.8 km/h 6.4 km/h 67 % 0 mm
02:56 12.7 °C 6.7 °C 1013.1 hPa SW 5.3 km/h 7.4 km/h 67 % 0 mm
03:01 12.6 °C 6.7 °C 1013.1 hPa WSW 3.2 km/h 5.6 km/h 67 % 0 mm
03:06 12.6 °C 6.6 °C 1013.1 hPa North 2.6 km/h 3.7 km/h 67 % 0 mm
03:11 12.5 °C 6.6 °C 1013.1 hPa Calm     67 % 0 mm
03:16 12.4 °C 6.7 °C 1013.1 hPa Calm     68 % 0 mm
03:21 12.3 °C 6.6 °C 1013.1 hPa Calm     68 % 0 mm
03:26 12.3 °C 6.8 °C 1013.1 hPa Calm     69 % 0 mm
03:31 12.3 °C 6.8 °C 1013.1 hPa WSW 2.7 km/h 3.7 km/h 69 % 0 mm
03:36 12.3 °C 6.8 °C 1013.1 hPa WSW 2.4 km/h 6.4 km/h 69 % 0 mm
03:41 12.6 °C 6.7 °C 1013.1 hPa North 5.8 km/h 7.4 km/h 67 % 0 mm
03:46 12.9 °C 6.7 °C 1012.8 hPa North 3.4 km/h 5.6 km/h 66 % 0 mm
03:51 13 °C 6.8 °C 1012.8 hPa SW 4 km/h 5.6 km/h 66 % 0 mm
03:56 13.1 °C 6.7 °C 1012.8 hPa WSW 0.2 km/h 1.9 km/h 65 % 0 mm
04:01 13.1 °C 6.6 °C 1012.8 hPa Calm     65 % 0 mm
04:06 13.1 °C 6.7 °C 1012.8 hPa SW 3.5 km/h 5.6 km/h 65 % 0 mm
04:11 13.1 °C 6.7 °C 1012.8 hPa WSW 5.3 km/h 5.6 km/h 65 % 0 mm
04:16 13.1 °C 6.7 °C 1012.4 hPa WSW 3.4 km/h 5.6 km/h 65 % 0 mm
04:21 13.1 °C 6.6 °C 1012.4 hPa Calm     65 % 0 mm
04:26 12.9 °C 6.5 °C 1012.4 hPa Calm     65 % 0 mm
04:31 12.8 °C 6.6 °C 1012.4 hPa Calm     66 % 0 mm
04:36 12.8 °C 6.6 °C 1012.4 hPa North 2.1 km/h 3.7 km/h 66 % 0 mm
04:41 12.5 °C 6.1 °C 1012.4 hPa SW 0.5 km/h 3.7 km/h 65 % 0 mm
04:46 12.1 °C 6.2 °C 1012.4 hPa WSW 2.7 km/h 4.8 km/h 67 % 0 mm
04:51 11.8 °C 6.1 °C 1012.4 hPa North 1.8 km/h 5.6 km/h 68 % 0 mm
04:56 11.7 °C 6.2 °C 1012.8 hPa Calm   3.7 km/h 69 % 0 mm
05:01 11.7 °C 6.2 °C 1012.8 hPa Calm     69 % 0 mm
05:06 11.6 °C 6.1 °C 1012.8 hPa North 3.7 km/h 5.6 km/h 69 % 0 mm
05:11 11.3 °C 5.8 °C 1012.8 hPa WSW 2.6 km/h 5.6 km/h 69 % 0 mm
05:16 11.2 °C 5.9 °C 1012.8 hPa WSW 2.6 km/h 5.6 km/h 70 % 0 mm
05:21 11.2 °C 6.2 °C 1012.4 hPa WSW 2.3 km/h 3.7 km/h 71 % 0 mm
05:26 11.2 °C 6.2 °C 1012.4 hPa WSW 1.1 km/h 5.6 km/h 71 % 0 mm
05:31 11.3 °C 6.2 °C 1012.4 hPa SW 2.6 km/h 3.7 km/h 71 % 0 mm
05:36 11.4 °C 6.3 °C 1012.4 hPa North 3.2 km/h 7.4 km/h 71 % 0 mm
05:41 11.5 °C 6.2 °C 1012.8 hPa WSW 4.7 km/h 6.4 km/h 70 % 0 mm
05:46 11.6 °C 6.3 °C 1012.8 hPa WSW 5.6 km/h 6.4 km/h 70 % 0 mm
05:51 11.6 °C 6.1 °C 1012.8 hPa WSW 1.6 km/h 3.7 km/h 69 % 0 mm
05:56 11.4 °C 5.9 °C 1012.8 hPa WSW 2.4 km/h 3.7 km/h 69 % 0 mm
06:01 11.3 °C 6.1 °C 1012.4 hPa WSW 2.1 km/h 5.6 km/h 70 % 0 mm
06:06 11.2 °C 5.9 °C 1012.8 hPa SW 1.4 km/h 5.6 km/h 70 % 0 mm
06:11 11 °C 5.9 °C 1012.8 hPa WSW 3.4 km/h 5.6 km/h 71 % 0 mm
06:16 10.9 °C 5.9 °C 1013.1 hPa North 4 km/h 5.6 km/h 71 % 0 mm
06:21 10.9 °C 5.9 °C 1013.1 hPa WSW 4.8 km/h 6.4 km/h 71 % 0 mm
06:26 11 °C 6.2 °C 1013.1 hPa WSW 4.7 km/h 6.4 km/h 72 % 0 mm
06:31 11.2 °C 6.3 °C 1013.1 hPa SW 6 km/h 7.4 km/h 72 % 0 mm
06:36 11.4 °C 6.6 °C 1013.1 hPa WSW 5.6 km/h 7.4 km/h 72 % 0 mm
06:41 11.6 °C 6.7 °C 1013.1 hPa WSW 3.9 km/h 7.4 km/h 72 % 0 mm
06:46 11.6 °C 6.7 °C 1013.4 hPa WSW 4.2 km/h 5.6 km/h 72 % 0 mm
06:51 11.7 °C 6.6 °C 1013.1 hPa WSW 1.8 km/h 3.7 km/h 71 % 0 mm
06:56 11.4 °C 6.2 °C 1013.1 hPa WSW 2.3 km/h 3.7 km/h 70 % 0 mm
07:01 11.2 °C 5.9 °C 1013.1 hPa WSW 2.9 km/h 5.6 km/h 70 % 0 mm
07:06 10.9 °C 5.9 °C 1013.4 hPa WSW 2.4 km/h 3.7 km/h 71 % 0 mm
07:11 10.8 °C 5.9 °C 1013.4 hPa SW 2.9 km/h 5.6 km/h 72 % 0 mm
07:16 10.7 °C 6.1 °C 1013.4 hPa WSW 2.9 km/h 5.6 km/h 73 % 0 mm
07:21 10.8 °C 6.1 °C 1013.4 hPa WSW 2.4 km/h 4.8 km/h 73 % 0 mm
07:26 10.9 °C 6.2 °C 1013.4 hPa WSW 2.4 km/h 5.6 km/h 73 % 0 mm
07:31 11.1 °C 6.4 °C 1013.4 hPa North 1.6 km/h 5.6 km/h 73 % 0 mm
07:36 11.2 °C 6.6 °C 1013.4 hPa WSW 3.2 km/h 5.6 km/h 73 % 0 mm
07:41 11.4 °C 6.7 °C 1013.4 hPa North 2.6 km/h 5.6 km/h 73 % 0 mm
07:46 11.6 °C 6.9 °C 1013.4 hPa North 2.3 km/h 5.6 km/h 73 % 0 mm
07:51 11.7 °C 6.8 °C 1013.4 hPa WSW 1.8 km/h 5.6 km/h 72 % 0 mm
07:56 12 °C 7.1 °C 1013.4 hPa North 5.5 km/h 9.7 km/h 72 % 0 mm
08:01 12.3 °C 7.2 °C 1013.4 hPa WSW 5.6 km/h 9.3 km/h 71 % 0 mm
08:06 12.6 °C 7.2 °C 1013.4 hPa North 6 km/h 11.1 km/h 70 % 0 mm
08:11 12.8 °C 7.4 °C 1013.4 hPa WSW 4.5 km/h 7.4 km/h 70 % 0 mm
08:16 13 °C 7.4 °C 1013.4 hPa WSW 7.7 km/h 8 km/h 69 % 0 mm
08:21 13.2 °C 7.4 °C 1013.4 hPa WSW 5.5 km/h 5.6 km/h 68 % 0 mm
08:26 13.5 °C 7.5 °C 1013.4 hPa West 6.4 km/h 11.1 km/h 67 % 0 mm
08:31 13.8 °C 7.6 °C 1013.4 hPa West 7.1 km/h 11.1 km/h 66 % 0 mm
08:36 13.9 °C 7.4 °C 1013.4 hPa North 5 km/h 11.1 km/h 65 % 0 mm
08:41 14.2 °C 7.7 °C 1013.4 hPa West 5.6 km/h 7.4 km/h 65 % 0 mm
08:46 14.4 °C 7.7 °C 1013.4 hPa West 7.4 km/h 7.4 km/h 64 % 0 mm
08:51 14.7 °C 7.7 °C 1013.4 hPa West 3.2 km/h 7.4 km/h 63 % 0 mm
08:56 15 °C 7.8 °C 1013.4 hPa NW 9.5 km/h 13 km/h 62 % 0 mm
09:01 15.1 °C 7.8 °C 1013.4 hPa NNW 6.6 km/h 16.7 km/h 62 % 0 mm
09:07 15.2 °C 7.9 °C 1013.4 hPa NNW 5.3 km/h 11.1 km/h 62 % 0 mm
09:11 15.1 °C 7.9 °C 1013.8 hPa NNW 4.5 km/h 6.4 km/h 62 % 0 mm
09:17 15.1 °C 7.9 °C 1013.8 hPa NNW 6.1 km/h 11.3 km/h 62 % 0 mm
09:22 15.5 °C 8 °C 1013.8 hPa WNW 8.2 km/h 14.8 km/h 61 % 0 mm
09:27 15.6 °C 7.9 °C 1013.8 hPa North 12.6 km/h 16.7 km/h 60 % 0 mm
09:32 15.6 °C 8.1 °C 1013.8 hPa West 6.9 km/h 11.1 km/h 61 % 0 mm
09:37 15.9 °C 7.9 °C 1013.8 hPa North 7.4 km/h 7.4 km/h 59 % 0 mm
09:42 16.1 °C 7.3 °C 1013.4 hPa West 5.8 km/h 7.4 km/h 56 % 0 mm
09:47 16.1 °C 7.8 °C 1013.8 hPa West 7.6 km/h 9.3 km/h 58 % 0 mm
09:52 16.2 °C 7.6 °C 1013.8 hPa West 9.2 km/h 11.1 km/h 57 % 0 mm
09:57 16.3 °C 7.7 °C 1013.8 hPa West 8.4 km/h 13 km/h 57 % 0 mm
10:02 16.1 °C 7.6 °C 1013.8 hPa North 4 km/h 5.6 km/h 57 % 0 mm
10:07 16.4 °C 8.1 °C 1013.8 hPa SSW 3.7 km/h 7.4 km/h 58 % 0 mm
10:12 16.5 °C 7.9 °C 1013.8 hPa SSW 4.7 km/h 7.4 km/h 57 % 0 mm
10:17 16.5 °C 7.9 °C 1013.8 hPa SW 6.4 km/h 11.3 km/h 57 % 0 mm
10:22 16.6 °C 8 °C 1013.8 hPa West 9.2 km/h 13 km/h 57 % 0 mm
10:27 16.5 °C 7.7 °C 1013.8 hPa West 6.9 km/h 11.1 km/h 56 % 0 mm
10:32 16.5 °C 7.9 °C 1013.8 hPa WNW 5 km/h 13 km/h 57 % 0 mm
10:37 16.6 °C 7.8 °C 1013.8 hPa WNW 5.3 km/h 8 km/h 56 % 0 mm
10:42 16.8 °C 7.9 °C 1013.8 hPa North 7.7 km/h 11.1 km/h 56 % 0 mm
10:47 16.9 °C 8.1 °C 1013.8 hPa North 6.4 km/h 9.3 km/h 56 % 0 mm
10:52 16.9 °C 8.1 °C 1013.8 hPa WSW 3.9 km/h 6.4 km/h 56 % 0 mm
10:57 17.2 °C 8.1 °C 1013.8 hPa West 2.7 km/h 9.7 km/h 55 % 0 mm
11:02 17.4 °C 8.1 °C 1013.4 hPa West 11.3 km/h 16.7 km/h 54 % 0 mm
11:07 17.7 °C 8.5 °C 1013.4 hPa North 6.9 km/h 11.1 km/h 55 % 0 mm
11:12 17.9 °C 8.2 °C 1013.4 hPa WNW 4.5 km/h 7.4 km/h 53 % 0 mm
11:17 17.8 °C 7.8 °C 1013.8 hPa SW 9.8 km/h 14.8 km/h 52 % 0 mm
11:22 17.7 °C 8 °C 1013.8 hPa SW 8.5 km/h 11.3 km/h 53 % 0 mm
11:27 17.9 °C 7.9 °C 1013.4 hPa SW 7.2 km/h 11.1 km/h 52 % 0 mm
11:32 17.9 °C 7.9 °C 1013.4 hPa SW 6.8 km/h 13 km/h 52 % 0 mm
11:37 18.1 °C 8.1 °C 1013.4 hPa SSW 5.3 km/h 9.3 km/h 52 % 0 mm
11:42 18.4 °C 8.1 °C 1013.4 hPa SSW 5 km/h 5.6 km/h 51 % 0 mm
11:47 18.4 °C 8.4 °C 1013.4 hPa SW 7.4 km/h 9.3 km/h 52 % 0 mm
11:52 18.5 °C 8.4 °C 1013.4 hPa SW 1.3 km/h 1.9 km/h 52 % 0 mm
11:57 18.8 °C 8.2 °C 1013.1 hPa WSW 5 km/h 5.6 km/h 50 % 0 mm
12:02 19 °C 8.1 °C 1013.1 hPa WSW 8.2 km/h 11.1 km/h 49 % 0 mm
12:07 19.5 °C 8.2 °C 1013.4 hPa WSW 1.9 km/h 5.6 km/h 48 % 0 mm
12:12 20.1 °C 8.1 °C 1013.1 hPa North 13.5 km/h 16.7 km/h 46 % 0 mm
12:17 19.7 °C 7.8 °C 1013.1 hPa SW 6.1 km/h 9.3 km/h 46 % 0 mm
12:22 19.6 °C 8 °C 1013.1 hPa SW 1.4 km/h 4.8 km/h 47 % 0 mm
12:27 19.7 °C 7.7 °C 1013.1 hPa SW 8.7 km/h 16.7 km/h 46 % 0 mm
12:32 19.6 °C 7.9 °C 1013.1 hPa SW 8 km/h 9.7 km/h 47 % 0 mm
12:37 19.4 °C 7.8 °C 1012.8 hPa SW 4.8 km/h 11.1 km/h 47 % 0 mm
12:42 19.7 °C 7.4 °C 1013.1 hPa West 5.6 km/h 16.7 km/h 45 % 0 mm
12:47 19.7 °C 7.4 °C 1013.1 hPa WSW 10.5 km/h 13 km/h 45 % 0 mm
12:52 19.6 °C 8 °C 1012.8 hPa North 10.1 km/h 16.7 km/h 47 % 0 mm
12:57 19.7 °C 7.8 °C 1012.8 hPa WSW 6.8 km/h 8 km/h 46 % 0 mm
13:02 19.9 °C 7.9 °C 1012.8 hPa SW 5.8 km/h 8 km/h 46 % 0 mm
13:07 20.4 °C 7.7 °C 1012.4 hPa SSE 8 km/h 11.1 km/h 44 % 0 mm
13:12 20.2 °C 8.2 °C 1012.4 hPa NNW 8.9 km/h 9.7 km/h 46 % 0 mm
13:17 20 °C 8 °C 1012.4 hPa NNW 1.4 km/h 3.7 km/h 46 % 0 mm
13:22 20.1 °C 8.1 °C 1012.4 hPa NNW 7.4 km/h 9.3 km/h 46 % 0 mm
13:27 20.3 °C 8 °C 1012.4 hPa SW 5.3 km/h 8 km/h 45 % 0 mm
13:33 20.4 °C 8.1 °C 1012.4 hPa SW 3.4 km/h 5.6 km/h 45 % 0 mm
13:38 20.8 °C 7.7 °C 1012.4 hPa West 3.7 km/h 13 km/h 43 % 0 mm
13:43 20.7 °C 8 °C 1012.4 hPa NW 6.1 km/h 16.7 km/h 44 % 0 mm
13:48 20.6 °C 7.9 °C 1012.4 hPa NW 4 km/h 5.6 km/h 44 % 0 mm
13:53 20.5 °C 7.5 °C 1012.4 hPa North 6.9 km/h 13 km/h 43 % 0 mm
13:58 21 °C 8.3 °C 1012.1 hPa WNW 10.8 km/h 16.7 km/h 44 % 0 mm
14:03 21.7 °C 7.9 °C 1012.1 hPa NNW 6.9 km/h 11.1 km/h 41 % 0 mm
14:08 21.2 °C 7.8 °C 1012.1 hPa WNW 12.9 km/h 16.7 km/h 42 % 0 mm
14:13 21.1 °C 7.7 °C 1012.1 hPa North 9.7 km/h 14.8 km/h 42 % 0 mm
14:18 21.1 °C 7.7 °C 1012.1 hPa North 9.8 km/h 14.8 km/h 42 % 0 mm
14:23 21.2 °C 8.1 °C 1012.1 hPa WSW 13.7 km/h 18.5 km/h 43 % 0 mm
14:28 21.1 °C 8.1 °C 1012.1 hPa West 10.3 km/h 16.7 km/h 43 % 0 mm
14:33 21 °C 7.9 °C 1012.1 hPa WNW 15.4 km/h 22.2 km/h 43 % 0 mm
14:38 20.7 °C 8 °C 1012.1 hPa North 15.8 km/h 20.4 km/h 44 % 0 mm
14:43 20.7 °C 8.3 °C 1012.1 hPa WSW 13.2 km/h 18.5 km/h 45 % 0 mm
14:48 20.7 °C 8.3 °C 1011.7 hPa WNW 16.9 km/h 22.2 km/h 45 % 0 mm
14:53 20.6 °C 7.9 °C 1011.7 hPa NW 8.5 km/h 14.8 km/h 44 % 0 mm
14:58 20.5 °C 8.2 °C 1011.7 hPa NNW 11.1 km/h 14.8 km/h 45 % 0 mm
15:03 20.5 °C 8.2 °C 1011.7 hPa NW 13.4 km/h 22.2 km/h 45 % 0 mm
15:08 20.5 °C 8.5 °C 1011.7 hPa NW 10.6 km/h 16.7 km/h 46 % 0 mm
15:13 20.5 °C 8.5 °C 1011.7 hPa West 14.2 km/h 20.4 km/h 46 % 0 mm
15:18 20.7 °C 8.6 °C 1011.7 hPa WNW 13.7 km/h 19.3 km/h 46 % 0 mm
15:23 20.9 °C 8.9 °C 1011.7 hPa West 12.2 km/h 18.5 km/h 46 % 0 mm
15:28 20.9 °C 8.5 °C 1011.7 hPa WNW 11.4 km/h 22.2 km/h 45 % 0 mm
15:33 20.9 °C 8.8 °C 1012.1 hPa North 10.3 km/h 17.7 km/h 46 % 0 mm
15:38 20.7 °C 9 °C 1011.7 hPa North 16.3 km/h 24.1 km/h 47 % 0 mm
15:43 20.8 °C 9.4 °C 1011.7 hPa WSW 9 km/h 14.5 km/h 48 % 0 mm
15:48 21 °C 9.3 °C 1011.7 hPa WNW 18.2 km/h 24.1 km/h 47 % 0 mm
15:53 20.9 °C 9.2 °C 1011.7 hPa West 10.9 km/h 18.5 km/h 47 % 0 mm
15:58 20.9 °C 8.9 °C 1011.7 hPa WNW 15.1 km/h 22.2 km/h 46 % 0 mm
16:03 21 °C 8.9 °C 1011.7 hPa WNW 18 km/h 20.9 km/h 46 % 0 mm
16:08 20.8 °C 9.1 °C 1011.7 hPa North 11.9 km/h 18.5 km/h 47 % 0 mm
16:13 20.5 °C 8.8 °C 1011.7 hPa WSW 16.1 km/h 22.5 km/h 47 % 0 mm
16:18 20.3 °C 8.9 °C 1011.7 hPa West 13.8 km/h 18.5 km/h 48 % 0 mm
16:23 20.4 °C 9 °C 1011.7 hPa West 14.8 km/h 18.5 km/h 48 % 0 mm
16:28 20.3 °C 8.9 °C 1011.4 hPa SW 9.7 km/h 13 km/h 48 % 0 mm
16:33 20.2 °C 8.8 °C 1011.4 hPa WSW 10.9 km/h 14.8 km/h 48 % 0 mm
16:38 20.1 °C 9.1 °C 1011.1 hPa North 8.2 km/h 11.3 km/h 49 % 0 mm
16:43 20.4 °C 9.1 °C 1011.4 hPa WNW 8.5 km/h 9.7 km/h 48 % 0 mm
16:48 20.5 °C 9.1 °C 1011.4 hPa NW 8.4 km/h 11.3 km/h 48 % 0 mm
16:53 20.6 °C 8.9 °C 1011.1 hPa WNW 12.1 km/h 14.8 km/h 47 % 0 mm
16:58 20.8 °C 8.7 °C 1011.1 hPa WSW 10.1 km/h 14.8 km/h 46 % 0 mm
17:03 20.8 °C 8.8 °C 1011.1 hPa WSW 11.4 km/h 14.5 km/h 46 % 0 mm
17:08 20.9 °C 8.8 °C 1011.1 hPa North 11.1 km/h 14.8 km/h 46 % 0 mm
17:13 20.8 °C 8.7 °C 1011.1 hPa West 15.3 km/h 24.1 km/h 46 % 0 mm
17:18 20.7 °C 8.7 °C 1011.1 hPa West 13.4 km/h 18.5 km/h 46 % 0 mm
17:23 20.7 °C 8.7 °C 1011.1 hPa WSW 11.6 km/h 16.7 km/h 46 % 0 mm
17:28 20.7 °C 8.7 °C 1011.1 hPa WNW 13.4 km/h 18.5 km/h 46 % 0 mm
17:33 20.9 °C 9.2 °C 1011.1 hPa North 15.6 km/h 20.4 km/h 47 % 0 mm
17:38 21.1 °C 9 °C 1010.7 hPa SW 8.5 km/h 11.3 km/h 46 % 0 mm
17:43 20.8 °C 8.7 °C 1010.7 hPa WNW 7.1 km/h 9.3 km/h 46 % 0 mm
17:48 20.7 °C 9 °C 1010.7 hPa WNW 6.3 km/h 9.3 km/h 47 % 0 mm
17:53 20.8 °C 9.1 °C 1011.1 hPa West 8.9 km/h 13 km/h 47 % 0 mm
17:58 20.8 °C 9.1 °C 1010.7 hPa SSW 12.4 km/h 18.5 km/h 47 % 0 mm
18:03 20.9 °C 9.2 °C 1010.7 hPa North 10.8 km/h 16.7 km/h 47 % 0 mm
18:08 21 °C 9.3 °C 1010.7 hPa WSW 10.3 km/h 14.8 km/h 47 % 0 mm
18:13 21.1 °C 9 °C 1010.7 hPa North 7.7 km/h 16.7 km/h 46 % 0 mm
18:18 21 °C 8.9 °C 1010.7 hPa SW 9.2 km/h 14.8 km/h 46 % 0 mm
18:23 20.8 °C 9.1 °C 1010.7 hPa West 12.2 km/h 16.7 km/h 47 % 0 mm
18:28 20.9 °C 9.2 °C 1010.7 hPa WSW 11.4 km/h 18.5 km/h 47 % 0 mm
18:33 20.9 °C 9.2 °C 1010.7 hPa WSW 15 km/h 18.5 km/h 47 % 0 mm
18:38 20.9 °C 9.2 °C 1010.7 hPa SW 13.2 km/h 17.7 km/h 47 % 0 mm
18:43 20.8 °C 9.1 °C 1010.7 hPa West 11.6 km/h 14.8 km/h 47 % 0 mm
18:48 20.7 °C 9.3 °C 1010.7 hPa West 11.3 km/h 17.7 km/h 48 % 0 mm
18:53 20.6 °C 9.2 °C 1010.7 hPa West 18.3 km/h 22.2 km/h 48 % 0 mm
18:58 20.6 °C 9.5 °C 1010.7 hPa West 7.4 km/h 14.8 km/h 49 % 0 mm
19:03 20.7 °C 9.3 °C 1010.7 hPa North 8 km/h 14.5 km/h 48 % 0 mm
19:08 20.4 °C 9.4 °C 1010.7 hPa SW 15.1 km/h 18.5 km/h 49 % 0 mm
19:13 20.2 °C 9.4 °C 1010.7 hPa WSW 8.7 km/h 13 km/h 50 % 0 mm
19:18 20.1 °C 9.7 °C 1011.1 hPa WSW 4 km/h 5.6 km/h 51 % 0 mm
19:23 20.2 °C 9.7 °C 1011.1 hPa SW 8.9 km/h 16.7 km/h 51 % 0 mm
19:28 20.1 °C 9.6 °C 1011.1 hPa SW 10.8 km/h 18.5 km/h 51 % 0 mm
19:33 20 °C 9.6 °C 1011.1 hPa North 8.5 km/h 11.1 km/h 51 % 0 mm
19:38 19.9 °C 9.8 °C 1011.1 hPa SW 12.6 km/h 14.8 km/h 52 % 0 mm
19:40 19.9 °C 9.7 °C 1011.1 hPa SW 4.2 km/h 6.4 km/h 52 % 0 mm
19:45 19.9 °C 9.8 °C 1011.1 hPa WSW 13.8 km/h 20.4 km/h 52 % 0 mm
19:50 20.1 °C 9.6 °C 1011.1 hPa WSW 6.1 km/h 11.1 km/h 51 % 0 mm
19:55 20.2 °C 9.4 °C 1011.1 hPa North 10.1 km/h 14.8 km/h 50 % 0 mm
20:00 20.1 °C 9.7 °C 1011.1 hPa WSW 6.1 km/h 9.3 km/h 51 % 0 mm
20:05 19.9 °C 9.5 °C 1011.1 hPa WSW 9 km/h 13 km/h 51 % 0 mm
20:10 19.8 °C 9.7 °C 1011.1 hPa WSW 6 km/h 11.1 km/h 52 % 0 mm
20:15 19.7 °C 9.6 °C 1011.4 hPa WSW 9.2 km/h 14.8 km/h 52 % 0 mm
20:20 19.6 °C 9.8 °C 1011.4 hPa North 12.1 km/h 18.5 km/h 53 % 0 mm
20:25 19.5 °C 9.9 °C 1011.4 hPa WSW 9.2 km/h 16.7 km/h 54 % 0 mm
20:30 19.4 °C 10.1 °C 1011.4 hPa West 10.8 km/h 16.1 km/h 55 % 0 mm
20:35 19.3 °C 10 °C 1011.4 hPa WSW 12.6 km/h 18.5 km/h 55 % 0 mm
20:40 19.2 °C 9.9 °C 1011.4 hPa North 7.7 km/h 13 km/h 55 % 0 mm
20:45 19.1 °C 10.1 °C 1011.4 hPa WSW 8.5 km/h 13 km/h 56 % 0 mm
20:50 19 °C 10.3 °C 1011.4 hPa North 6 km/h 9.3 km/h 57 % 0 mm
20:55 18.8 °C 10.4 °C 1011.4 hPa SW 12.1 km/h 16.7 km/h 58 % 0 mm
21:00 18.7 °C 10.6 °C 1011.4 hPa SW 4.2 km/h 7.4 km/h 59 % 0 mm
21:05 18.5 °C 11.1 °C 1011.4 hPa SSW 14.8 km/h 18.5 km/h 62 % 0 mm
21:10 18.1 °C 11.4 °C 1011.4 hPa SSW 8.5 km/h 13 km/h 65 % 0 mm
21:15 17.7 °C 11.7 °C 1011.7 hPa SSW 5.3 km/h 13 km/h 68 % 0 mm
21:20 17.4 °C 11.7 °C 1011.4 hPa SSW 10.1 km/h 13 km/h 69 % 0 mm
21:25 17.2 °C 11.7 °C 1011.7 hPa SSW 6.1 km/h 8 km/h 70 % 0 mm
21:30 17.2 °C 11.9 °C 1011.4 hPa SSW 6.6 km/h 9.3 km/h 71 % 0 mm
21:35 17.1 °C 11.8 °C 1011.4 hPa North 5.8 km/h 11.1 km/h 71 % 0 mm
21:40 17.1 °C 11.8 °C 1011.7 hPa SSW 7.4 km/h 9.3 km/h 71 % 0 mm
21:45 17.1 °C 11.8 °C 1011.7 hPa North 9.8 km/h 16.7 km/h 71 % 0 mm
21:50 17.2 °C 11.9 °C 1011.7 hPa South 9.8 km/h 16.7 km/h 71 % 0 mm
21:55 17.2 °C 11.9 °C 1011.7 hPa SW 7.6 km/h 16.7 km/h 71 % 0 mm
22:00 17.2 °C 11.9 °C 1011.7 hPa North 10 km/h 14.8 km/h 71 % 0 mm
22:05 17.1 °C 11.6 °C 1011.7 hPa SW 10.9 km/h 16.7 km/h 70 % 0 mm
22:10 17 °C 11.5 °C 1011.7 hPa SW 9.7 km/h 16.7 km/h 70 % 0 mm
22:15 16.9 °C 11.4 °C 1011.7 hPa WSW 16.9 km/h 25.9 km/h 70 % 0 mm
22:20 16.9 °C 11.8 °C 1012.1 hPa SW 11.1 km/h 16.7 km/h 72 % 0 mm
22:25 16.9 °C 11.7 °C 1012.1 hPa WSW 13.5 km/h 20.4 km/h 71 % 0 mm
22:30 16.9 °C 11.6 °C 1012.1 hPa SW 11.1 km/h 16.7 km/h 71 % 0 mm
22:35 16.9 °C 11.8 °C 1012.1 hPa WSW 10.8 km/h 11.1 km/h 72 % 0 mm
22:40 16.8 °C 11.9 °C 1012.1 hPa North 15 km/h 20.9 km/h 73 % 0 mm
22:45 16.5 °C 12.1 °C 1012.1 hPa SSW 10.8 km/h 18.5 km/h 75 % 0 mm
22:50 16.2 °C 12.2 °C 1012.1 hPa SW 10 km/h 22.2 km/h 77 % 0 mm
22:55 15.8 °C 12.6 °C 1012.1 hPa North 6.6 km/h 13 km/h 81 % 0 mm
23:00 15.6 °C 12.5 °C 1012.1 hPa WSW 3.1 km/h 5.6 km/h 82 % 0 mm
23:05 15.4 °C 12.8 °C 1012.1 hPa WSW 2.9 km/h 5.6 km/h 84 % 0 mm
23:10 15.3 °C 12.7 °C 1012.1 hPa SW 8.9 km/h 11.1 km/h 84 % 0 mm
23:15 15.4 °C 12.7 °C 1012.1 hPa North 6.4 km/h 9.3 km/h 84 % 0 mm
23:20 15.4 °C 12.7 °C 1012.1 hPa SW 5.6 km/h 7.4 km/h 84 % 0 mm
23:26 15.4 °C 12.7 °C 1012.1 hPa SW 4.7 km/h 7.4 km/h 84 % 0 mm
23:30 15.4 °C 12.7 °C 1011.7 hPa SW 3.9 km/h 5.6 km/h 84 % 0 mm
23:36 15.4 °C 12.7 °C 1011.7 hPa SW 6.6 km/h 9.7 km/h 84 % 0 mm
23:40 15.4 °C 12.7 °C 1011.7 hPa SW 4.8 km/h 5.6 km/h 84 % 0 mm
23:45 15.4 °C 12.5 °C 1011.7 hPa SW 6.6 km/h 9.3 km/h 83 % 0 mm
23:51 15.4 °C 12.5 °C 1011.7 hPa North 5.3 km/h 5.6 km/h 83 % 0 mm
23:55 15.4 °C 12.5 °C 1011.7 hPa North 5.3 km/h 9.3 km/h 83 % 0 mm
Ararat Weather
Compliments of Weather Underground - 2.25 mb
Click here to send mail.


ABOUT

Live weather data from Ararat, Victoria, Australia, 3377
Data uploaded from Cumulus every 5 minutes to Weather Underground.
This site then downloads the raw data for formatting and display.
Metric and imperial data can be displayed. Graphs and historical data available.
Includes Sun and Moon times and rain image live from BOM.

Check out Ararat Weather on Facebook, Twitter and Google +

Help support ongoing costs by checking out the ads





Follow @AraratWeather